createdAt,value
2023-02-08T00:01:27.420Z,100307.94
2023-02-08T00:03:56.645Z,100305.88
2023-02-08T00:06:24.754Z,100298.47
2023-02-08T00:08:52.533Z,100294.75
2023-02-08T00:11:21.909Z,100290.25
2023-02-08T00:13:50.174Z,100282.84
2023-02-08T00:16:18.309Z,100281.84
2023-02-08T00:18:46.337Z,100287.81
2023-02-08T00:21:16.890Z,100282.06
2023-02-08T00:23:45.042Z,100289.03
2023-02-08T00:26:13.811Z,100287.81
2023-02-08T00:28:43.419Z,100289.47
2023-02-08T00:31:11.454Z,100288.63
2023-02-08T00:33:41.672Z,100284.53
2023-02-08T00:36:10.337Z,100291.13
2023-02-08T00:38:38.153Z,100279.63
2023-02-08T00:41:06.354Z,100292.94
2023-02-08T00:43:34.534Z,100289.50
2023-02-08T00:46:03.802Z,100289.03
2023-02-08T00:48:31.802Z,100287.41
2023-02-08T00:51:01.305Z,100293.59
2023-02-08T00:53:29.491Z,100290.31
2023-02-08T00:55:57.814Z,100298.53
2023-02-08T00:58:25.791Z,100297.31
2023-02-08T01:00:54.292Z,100301.44
2023-02-08T01:03:24.797Z,100305.53
2023-02-08T01:05:54.056Z,100306.34
2023-02-08T01:08:22.048Z,100305.53
2023-02-08T01:10:49.807Z,100303.91
2023-02-08T01:13:17.712Z,100297.31
2023-02-08T01:15:45.842Z,100309.63
2023-02-08T01:18:13.610Z,100303.44
2023-02-08T01:20:42.676Z,100299.34
2023-02-08T01:23:10.599Z,100301.81
2023-02-08T01:25:38.372Z,100302.19
2023-02-08T01:28:09.344Z,100294.41
2023-02-08T01:30:38.755Z,100302.19
2023-02-08T01:33:06.811Z,100298.50
2023-02-08T01:35:34.525Z,100300.94
2023-02-08T01:38:03.680Z,100288.63
2023-02-08T01:40:31.462Z,100297.47
2023-02-08T01:42:59.664Z,100286.56
2023-02-08T01:45:30.032Z,100287.81
2023-02-08T01:48:07.594Z,100296.00
2023-02-08T01:50:43.748Z,100296.03
2023-02-08T01:53:15.587Z,100292.34
2023-02-08T01:55:48.787Z,100292.34
2023-02-08T01:58:18.656Z,100292.75
2023-02-08T02:00:47.689Z,100295.63
2023-02-08T02:03:18.538Z,100293.56
2023-02-08T02:05:49.970Z,100291.09
2023-02-08T02:08:19.637Z,100292.69
2023-02-08T02:10:49.403Z,100282.84
2023-02-08T02:13:22.051Z,100289.84
2023-02-08T02:15:50.547Z,100289.84
2023-02-08T02:18:24.233Z,100278.72
2023-02-08T02:21:09.822Z,100279.72
2023-02-08T02:24:12.454Z,100275.84
2023-02-08T02:27:10.718Z,100278.69
2023-02-08T02:30:03.836Z,100278.75
2023-02-08T02:32:42.668Z,100280.19
2023-02-08T02:35:18.383Z,100283.91
2023-02-08T02:37:54.562Z,100282.06
2023-02-08T02:40:31.090Z,100274.66
2023-02-08T02:43:24.700Z,100283.28
2023-02-08T02:46:01.559Z,100273.81
2023-02-08T02:48:36.643Z,100281.84
2023-02-08T02:51:10.546Z,100277.50
2023-02-08T02:53:46.117Z,100279.78
2023-02-08T02:56:18.528Z,100282.06
2023-02-08T02:58:46.637Z,100288.63
2023-02-08T03:01:15.061Z,100286.53
2023-02-08T03:03:44.188Z,100279.16
2023-02-08T03:06:15.896Z,100279.16
2023-02-08T03:09:18.975Z,100282.41
2023-02-08T03:11:56.034Z,100285.25
2023-02-08T03:14:40.701Z,100275.84
2023-02-08T03:17:28.823Z,100264.34
2023-02-08T03:20:06.831Z,100270.91
2023-02-08T03:22:43.929Z,100268.03
2023-02-08T03:25:17.876Z,100275.78
2023-02-08T03:27:53.534Z,100273.09
2023-02-08T03:30:26.614Z,100267.56
2023-02-08T03:32:59.924Z,100271.25
2023-02-08T03:35:34.029Z,100274.97
2023-02-08T03:38:05.648Z,100269.44
2023-02-08T03:40:38.765Z,100277.25
2023-02-08T03:43:12.419Z,100277.47
2023-02-08T03:45:43.482Z,100272.91
2023-02-08T03:48:15.073Z,100272.50
2023-02-08T03:50:48.362Z,100278.22
2023-02-08T03:53:18.762Z,100281.50
2023-02-08T03:55:49.223Z,100274.47
2023-02-08T03:58:23.924Z,100273.63
2023-02-08T04:00:58.063Z,100269.09
2023-02-08T04:03:28.232Z,100278.47
2023-02-08T04:05:57.636Z,100272.00
2023-02-08T04:08:27.079Z,100269.47
2023-02-08T04:10:54.983Z,100274.38
2023-02-08T04:13:22.660Z,100273.91
2023-02-08T04:15:50.441Z,100273.81
2023-02-08T04:18:18.227Z,100270.06
2023-02-08T04:20:45.956Z,100268.91
2023-02-08T04:23:14.952Z,100272.56
2023-02-08T04:25:42.647Z,100274.63
2023-02-08T04:28:10.581Z,100276.25
2023-02-08T04:30:38.342Z,100266.81
2023-02-08T04:33:06.111Z,100281.97
2023-02-08T04:35:34.300Z,100275.53
2023-02-08T04:38:02.014Z,100276.66
2023-02-08T04:40:31.459Z,100268.47
2023-02-08T04:42:59.227Z,100271.34
2023-02-08T04:45:28.236Z,100270.94
2023-02-08T04:47:55.900Z,100269.91
2023-02-08T04:50:25.670Z,100273.41
2023-02-08T04:52:53.940Z,100273.03
2023-02-08T04:55:21.701Z,100275.06
2023-02-08T04:57:50.696Z,100272.78
2023-02-08T05:00:19.201Z,100269.66
2023-02-08T05:02:47.640Z,100260.16
2023-02-08T05:05:15.340Z,100273.72
2023-02-08T05:07:43.017Z,100268.03
2023-02-08T05:10:10.984Z,100280.56
2023-02-08T05:12:38.697Z,100270.06
2023-02-08T05:15:08.362Z,100278.28
2023-02-08T05:17:36.763Z,100274.63
2023-02-08T05:20:04.857Z,100268.91
2023-02-08T05:22:32.636Z,100266.63
2023-02-08T05:25:00.445Z,100260.34
2023-02-08T05:27:28.252Z,100266.06
2023-02-08T05:29:58.121Z,100264.03
2023-02-08T05:32:28.230Z,100271.00
2023-02-08T05:34:55.892Z,100268.91
2023-02-08T05:37:23.560Z,100269.34
2023-02-08T05:39:51.314Z,100268.97
2023-02-08T05:42:19.123Z,100267.31
2023-02-08T05:44:46.833Z,100265.28
2023-02-08T05:47:14.720Z,100269.75
2023-02-08T05:49:43.714Z,100270.94
2023-02-08T05:52:11.810Z,100269.66
2023-02-08T05:54:39.742Z,100267.63
2023-02-08T05:57:07.544Z,100274.63
2023-02-08T05:59:35.262Z,100269.66
2023-02-08T06:02:03.012Z,100278.69
2023-02-08T06:04:30.840Z,100276.44
2023-02-08T06:06:59.910Z,100277.91
2023-02-08T06:09:27.930Z,100281.47
2023-02-08T06:11:55.651Z,100279.41
2023-02-08T06:14:23.431Z,100280.47
2023-02-08T06:16:51.184Z,100279.44
2023-02-08T06:19:19.169Z,100283.63
2023-02-08T06:21:47.035Z,100281.06
2023-02-08T06:24:16.914Z,100283.53
2023-02-08T06:26:45.098Z,100291.66
2023-02-08T06:29:12.795Z,100300.75
2023-02-08T06:31:40.599Z,100301.97
2023-02-08T06:34:08.591Z,100303.97
2023-02-08T06:36:36.322Z,100308.53
2023-02-08T06:39:04.261Z,100295.81
2023-02-08T06:41:33.341Z,100297.88
2023-02-08T06:44:02.185Z,100302.31
2023-02-08T06:46:30.496Z,100303.22
2023-02-08T06:49:00.294Z,100297.91
2023-02-08T06:51:28.375Z,100300.72
2023-02-08T06:54:11.426Z,100294.78
2023-02-08T06:56:40.645Z,100294.66
2023-02-08T07:10:21.803Z,100299.06
2023-02-08T07:12:51.025Z,100296.69
2023-02-08T07:15:18.970Z,100308.56
2023-02-08T07:17:46.671Z,100300.44
2023-02-08T07:20:14.736Z,100291.38
2023-02-08T07:22:42.929Z,100290.59
2023-02-08T07:25:11.021Z,100302.22
2023-02-08T07:27:39.212Z,100303.44
2023-02-08T07:30:09.840Z,100305.41
2023-02-08T07:32:37.610Z,100312.56
2023-02-08T07:35:05.578Z,100310.59
2023-02-08T07:37:33.795Z,100309.84
2023-02-08T07:40:01.568Z,100310.69
2023-02-08T07:42:29.305Z,100312.16
2023-02-08T07:44:57.031Z,100317.31
2023-02-08T07:47:26.131Z,100304.38
2023-02-08T07:49:53.900Z,100320.59
2023-02-08T07:52:21.562Z,100310.38
2023-02-08T07:54:52.066Z,100313.25
2023-02-08T07:57:21.826Z,100316.13
2023-02-08T07:59:49.576Z,100323.50
2023-02-08T08:02:17.449Z,100310.38
2023-02-08T08:04:46.494Z,100310.03
2023-02-08T08:07:14.277Z,100312.25
2023-02-08T08:09:42.010Z,100311.03
2023-02-08T08:12:09.760Z,100303.06
2023-02-08T08:14:37.516Z,100303.66
2023-02-08T08:17:05.246Z,100312.94
2023-02-08T08:19:33.039Z,100304.50
2023-02-08T08:22:02.113Z,100309.03
2023-02-08T08:24:31.648Z,100309.63
2023-02-08T08:26:59.343Z,100302.78
2023-02-08T08:29:27.134Z,100299.22
2023-02-08T08:31:54.962Z,100296.25
2023-02-08T08:34:29.563Z,100294.66
2023-02-08T08:36:57.422Z,100296.34
2023-02-08T08:39:27.921Z,100290.69
2023-02-08T08:41:58.351Z,100300.78
2023-02-08T08:44:26.317Z,100295.69
2023-02-08T08:46:56.629Z,100286.09
2023-02-08T08:49:24.307Z,100283.28
2023-02-08T08:51:52.167Z,100289.47
2023-02-08T08:54:20.683Z,100288.84
2023-02-08T08:56:49.741Z,100283.31
2023-02-08T08:59:17.489Z,100282.13
2023-02-08T09:01:45.526Z,100276.91
2023-02-08T09:04:13.505Z,100274.25
2023-02-08T09:06:41.324Z,100270.50
2023-02-08T09:09:09.478Z,100272.13
2023-02-08T09:11:37.277Z,100266.84
2023-02-08T09:14:06.755Z,100275.56
2023-02-08T09:16:34.499Z,100279.63
2023-02-08T09:19:02.531Z,100280.75
2023-02-08T09:21:30.368Z,100278.31
2023-02-08T09:23:58.182Z,100289.88
2023-02-08T09:26:26.613Z,100278.00
2023-02-08T09:28:54.689Z,100288.53
2023-02-08T09:31:26.073Z,100291.50
2023-02-08T09:33:55.909Z,100291.34
2023-02-08T09:36:25.960Z,100286.34
2023-02-08T09:39:00.222Z,100298.63
2023-02-08T09:41:42.653Z,100294.34
2023-02-08T09:44:22.283Z,100278.53
2023-02-08T09:46:58.382Z,100288.78
2023-02-08T09:49:32.005Z,100284.22
2023-02-08T09:52:04.688Z,100280.94
2023-02-08T09:54:37.509Z,100285.19
2023-02-08T09:57:10.075Z,100288.31
2023-02-08T09:59:41.884Z,100270.94
2023-02-08T10:02:20.573Z,100257.03
2023-02-08T10:04:58.381Z,100264.44
2023-02-08T10:07:26.918Z,100264.38
2023-02-08T10:09:57.694Z,100264.28
2023-02-08T10:12:34.620Z,100262.19
2023-02-08T10:15:12.420Z,100263.84
2023-02-08T10:17:59.533Z,100263.25
2023-02-08T10:20:38.358Z,100268.97
2023-02-08T10:23:23.232Z,100258.06
2023-02-08T10:26:12.910Z,100251.78
2023-02-08T10:29:09.207Z,100251.59
2023-02-08T10:32:03.317Z,100244.78
2023-02-08T10:34:44.053Z,100240.72
2023-02-08T10:37:18.018Z,100240.41
2023-02-08T10:39:54.207Z,100236.09
2023-02-08T10:42:27.049Z,100234.47
2023-02-08T10:45:18.930Z,100228.63
2023-02-08T10:47:54.332Z,100226.47
2023-02-08T10:50:30.385Z,100224.84
2023-02-08T10:52:58.576Z,100225.16
2023-02-08T10:55:26.686Z,100208.91
2023-02-08T10:57:58.304Z,100203.69
2023-02-08T11:00:28.627Z,100211.50
2023-02-08T11:03:00.681Z,100195.69
2023-02-08T11:05:36.079Z,100196.31
2023-02-08T11:08:08.522Z,100195.84
2023-02-08T11:10:37.458Z,100188.81
2023-02-08T11:13:15.794Z,100184.72
2023-02-08T11:15:48.071Z,100186.09
2023-02-08T11:18:23.195Z,100181.25
2023-02-08T11:20:54.484Z,100187.91
2023-02-08T11:23:26.442Z,100173.22
2023-02-08T11:25:55.707Z,100177.41
2023-02-08T11:28:30.409Z,100174.72
2023-02-08T11:31:03.619Z,100169.91
2023-02-08T11:33:31.523Z,100169.94
2023-02-08T11:36:07.387Z,100165.97
2023-02-08T11:38:37.668Z,100166.56
2023-02-08T11:41:15.617Z,100156.38
2023-02-08T11:43:44.270Z,100146.25
2023-02-08T11:46:12.484Z,100145.75
2023-02-08T11:48:45.441Z,100141.66
2023-02-08T11:51:24.999Z,100150.78
2023-02-08T11:53:52.767Z,100152.91
2023-02-08T11:56:23.382Z,100143.34
2023-02-08T11:59:00.630Z,100135.72
2023-02-08T12:01:30.468Z,100139.31
2023-02-08T12:04:00.772Z,100137.06
2023-02-08T12:06:58.631Z,100134.56
2023-02-08T12:09:43.766Z,100124.22
2023-02-08T12:12:23.536Z,100116.41
2023-02-08T12:15:01.844Z,100107.91
2023-02-08T12:18:02.110Z,100110.75
2023-02-08T12:20:48.267Z,100108.00
2023-02-08T12:23:35.107Z,100098.19
2023-02-08T12:26:19.586Z,100093.88
2023-02-08T12:29:02.114Z,100082.50
2023-02-08T12:31:43.846Z,100079.06
2023-02-08T12:34:43.614Z,100068.84
2023-02-08T12:37:41.269Z,100066.56
2023-02-08T12:40:40.258Z,100068.13
2023-02-08T12:43:22.822Z,100044.69
2023-02-08T12:46:16.286Z,100046.00
2023-02-08T12:49:03.453Z,100046.06
2023-02-08T12:51:42.029Z,100050.72
2023-02-08T12:54:14.082Z,100042.50
2023-02-08T12:56:53.643Z,100037.06
2023-02-08T12:59:35.268Z,100030.88
2023-02-08T13:02:10.454Z,100033.94
2023-02-08T13:04:42.195Z,100018.84
2023-02-08T13:07:14.248Z,100028.47
2023-02-08T13:09:48.185Z,100024.81
2023-02-08T13:12:18.946Z,100022.94
2023-02-08T13:14:53.453Z,100026.03
2023-02-08T13:17:24.890Z,100030.72
2023-02-08T13:20:00.383Z,100017.28
2023-02-08T13:22:32.509Z,100010.91
2023-02-08T13:25:07.672Z,100016.03
2023-02-08T13:27:36.093Z,100017.41
2023-02-08T13:30:07.481Z,100010.19
2023-02-08T13:32:43.944Z,100013.56
2023-02-08T13:35:17.213Z,100018.09
2023-02-08T13:37:53.309Z,100002.06
2023-02-08T13:40:28.197Z,100006.91
2023-02-08T13:43:00.913Z,100004.28
2023-02-08T13:45:33.009Z,99999.94
2023-02-08T13:48:03.125Z,99997.63
2023-02-08T13:50:43.935Z,99998.63
2023-02-08T13:53:12.562Z,100006.13
2023-02-08T13:55:57.485Z,100011.94
2023-02-08T13:58:39.618Z,100009.41
2023-02-08T14:01:21.605Z,100002.41
2023-02-08T14:04:31.011Z,100000.59
2023-02-08T14:07:04.707Z,100008.44
2023-02-08T14:09:46.243Z,100002.41
2023-02-08T14:12:22.946Z,99997.41
2023-02-08T14:15:20.373Z,100002.47
2023-02-08T14:17:51.568Z,99994.03
2023-02-08T14:20:22.519Z,99993.81
2023-02-08T14:22:52.686Z,99987.88
2023-02-08T14:25:24.219Z,99990.81
2023-02-08T14:27:55.104Z,99992.31
2023-02-08T14:30:27.664Z,99988.91
2023-02-08T14:33:16.186Z,99993.34
2023-02-08T14:35:52.819Z,99995.75
2023-02-08T14:38:53.061Z,99992.84
2023-02-08T14:41:57.123Z,99985.97
2023-02-08T14:44:48.872Z,99989.28
2023-02-08T14:48:07.472Z,99981.69
2023-02-08T14:50:42.139Z,99969.06
2023-02-08T14:53:22.461Z,99973.84
2023-02-08T14:55:53.436Z,99972.91
2023-02-08T14:58:28.819Z,99978.16
2023-02-08T15:01:00.355Z,99965.25
2023-02-08T15:03:31.484Z,99977.06
2023-02-08T15:06:21.841Z,99963.69
2023-02-08T15:08:55.134Z,99974.03
2023-02-08T15:11:27.628Z,99970.81
2023-02-08T15:13:59.927Z,99960.06
2023-02-08T15:16:34.101Z,99967.75
2023-02-08T15:19:03.825Z,99966.06
2023-02-08T15:21:36.663Z,99957.47
2023-02-08T15:24:14.010Z,99959.84
2023-02-08T15:26:56.650Z,99958.38
2023-02-08T15:29:39.051Z,99964.19
2023-02-08T15:32:16.372Z,99955.88
2023-02-08T15:34:45.994Z,99964.66
2023-02-08T15:37:17.608Z,99957.81
2023-02-08T15:39:46.863Z,99967.94
2023-02-08T15:42:18.766Z,99970.53
2023-02-08T15:44:48.091Z,99956.94
2023-02-08T15:47:18.884Z,99958.72
2023-02-08T15:49:50.778Z,99951.31
2023-02-08T15:52:23.103Z,99962.56
2023-02-08T15:54:51.994Z,99961.50
2023-02-08T15:57:33.287Z,99961.59
2023-02-08T16:00:02.027Z,99971.84
2023-02-08T16:02:32.008Z,99963.69
2023-02-08T16:05:01.920Z,99971.84
2023-02-08T16:07:36.005Z,99963.03
2023-02-08T16:10:05.487Z,99966.13
2023-02-08T16:12:33.683Z,99966.28
2023-02-08T16:15:01.607Z,99961.88
2023-02-08T16:17:43.736Z,99958.56
2023-02-08T16:20:30.144Z,99961.56
2023-02-08T16:23:03.228Z,99974.66
2023-02-08T16:25:43.225Z,99967.38
2023-02-08T16:28:26.297Z,99968.13
2023-02-08T16:30:54.296Z,99971.53
2023-02-08T16:33:22.184Z,99976.09
2023-02-08T16:35:50.229Z,99973.31
2023-02-08T16:38:23.330Z,99976.56
2023-02-08T16:40:52.552Z,99974.81
2023-02-08T16:43:23.792Z,99976.31
2023-02-08T16:46:24.437Z,99981.06
2023-02-08T16:48:54.629Z,99987.16
2023-02-08T16:51:24.832Z,99980.28
2023-02-08T16:53:57.293Z,99985.53
2023-02-08T16:56:25.465Z,99985.75
2023-02-08T16:58:53.433Z,99992.75
2023-02-08T17:01:24.242Z,99994.66
2023-02-08T17:03:53.017Z,99989.28
2023-02-08T17:06:30.449Z,99994.19
2023-02-08T17:09:00.974Z,99989.53
2023-02-08T17:11:29.452Z,99992.81
2023-02-08T17:13:58.336Z,99986.03
2023-02-08T17:16:28.129Z,99991.63
2023-02-08T17:18:56.727Z,99981.81
2023-02-08T17:21:24.696Z,99988.13
2023-02-08T17:23:52.380Z,99987.19
2023-02-08T17:26:24.149Z,99983.94
2023-02-08T17:28:51.837Z,99991.88
2023-02-08T17:31:20.131Z,99982.31
2023-02-08T17:33:50.205Z,99991.75
2023-02-08T17:36:18.469Z,99992.13
2023-02-08T17:38:48.287Z,99985.56
2023-02-08T17:41:18.098Z,99992.22
2023-02-08T17:43:47.726Z,99983.47
2023-02-08T17:46:18.048Z,99989.03
2023-02-08T17:48:48.120Z,99985.31
2023-02-08T17:51:17.860Z,99983.69
2023-02-08T17:53:46.143Z,99984.84
2023-02-08T17:56:16.130Z,99982.06
2023-02-08T17:58:43.959Z,99983.13
2023-02-08T18:01:17.793Z,99987.63
2023-02-08T18:03:45.888Z,99983.00
2023-02-08T18:06:14.376Z,99985.09
2023-02-08T18:08:42.331Z,99982.72
2023-02-08T18:11:12.869Z,99983.31
2023-02-08T18:13:40.738Z,99978.75
2023-02-08T18:16:09.957Z,99981.00
2023-02-08T18:18:39.611Z,99981.91
2023-02-08T18:21:12.138Z,99982.50
2023-02-08T18:23:40.373Z,99981.53
2023-02-08T18:26:11.246Z,99975.50
2023-02-08T18:28:40.769Z,99975.69
2023-02-08T18:31:14.492Z,99973.63
2023-02-08T18:33:44.884Z,99983.84
2023-02-08T18:36:13.820Z,99974.53
2023-02-08T18:38:45.508Z,99973.75
2023-02-08T18:41:15.330Z,99976.81
2023-02-08T18:43:44.180Z,99983.81
2023-02-08T18:46:15.072Z,99984.34
2023-02-08T18:48:44.844Z,99983.22
2023-02-08T18:51:16.254Z,99978.91
2023-02-08T18:53:44.061Z,99979.81
2023-02-08T18:56:13.666Z,99981.19
2023-02-08T18:58:41.836Z,99977.72
2023-02-08T19:01:12.295Z,99977.94
2023-02-08T19:03:40.477Z,99985.66
2023-02-08T19:06:11.861Z,99976.06
2023-02-08T19:08:40.311Z,99975.38
2023-02-08T19:11:16.062Z,99977.91
2023-02-08T19:13:44.102Z,99976.66
2023-02-08T19:16:12.682Z,99973.00
2023-02-08T19:18:40.791Z,99982.19
2023-02-08T19:21:12.015Z,99979.72
2023-02-08T19:23:39.855Z,99976.91
2023-02-08T19:26:10.040Z,99981.44
2023-02-08T19:28:37.897Z,99968.56
2023-02-08T19:31:08.575Z,99970.66
2023-02-08T19:33:36.509Z,99964.25
2023-02-08T19:36:09.715Z,99961.66
2023-02-08T19:38:37.875Z,99956.84
2023-02-08T19:41:06.755Z,99964.88
2023-02-08T19:43:35.584Z,99966.38
2023-02-08T19:46:03.465Z,99964.34
2023-02-08T19:48:32.503Z,99967.72
2023-02-08T19:51:01.475Z,99966.06
2023-02-08T19:53:30.870Z,99958.19
2023-02-08T19:55:59.925Z,99957.75
2023-02-08T19:58:28.892Z,99956.28
2023-02-08T20:00:56.873Z,99955.00
2023-02-08T20:03:25.200Z,99960.00
2023-02-08T20:05:54.937Z,99960.88
2023-02-08T20:08:25.871Z,99950.00
2023-02-08T20:10:56.681Z,99948.97
2023-02-08T20:13:25.265Z,99948.97
2023-02-08T20:15:59.654Z,99947.34
2023-02-08T20:18:27.428Z,99948.84
2023-02-08T20:21:02.172Z,99945.72
2023-02-08T20:23:30.452Z,99951.81
2023-02-08T20:26:08.798Z,99955.06
2023-02-08T20:28:37.410Z,99954.81
2023-02-08T20:31:08.620Z,99948.63
2023-02-08T20:33:38.095Z,99954.94
2023-02-08T20:36:09.457Z,99953.28
2023-02-08T20:38:38.358Z,99947.22
2023-02-08T20:41:10.031Z,99942.00
2023-02-08T20:43:41.253Z,99940.50
2023-02-08T20:46:11.524Z,99948.97
2023-02-08T20:48:40.955Z,99943.25
2023-02-08T20:51:11.157Z,99935.91
2023-02-08T20:53:42.199Z,99940.59
2023-02-08T20:56:13.617Z,99937.81
2023-02-08T20:58:41.834Z,99936.19
2023-02-08T21:01:10.170Z,99940.66
2023-02-08T21:03:38.034Z,99937.81
2023-02-08T21:06:14.471Z,99925.03
2023-02-08T21:08:47.911Z,99930.00
2023-02-08T21:11:17.638Z,99931.16
2023-02-08T21:13:48.035Z,99927.88
2023-02-08T21:16:17.783Z,99929.19
2023-02-08T21:18:47.162Z,99932.78
2023-02-08T21:21:18.423Z,99933.06
2023-02-08T21:23:46.670Z,99935.31
2023-02-08T21:26:18.514Z,99930.81
2023-02-08T21:28:48.764Z,99926.38
2023-02-08T21:31:19.729Z,99923.78
2023-02-08T21:33:47.799Z,99921.41
2023-02-08T21:36:19.484Z,99922.34
2023-02-08T21:38:48.170Z,99916.56
2023-02-08T21:41:20.441Z,99918.94
2023-02-08T21:43:51.078Z,99920.72
2023-02-08T21:46:19.544Z,99925.03
2023-02-08T21:49:20.842Z,99925.31
2023-02-08T21:52:08.713Z,99922.22
2023-02-08T21:54:44.329Z,99929.41
2023-02-08T21:57:17.823Z,99916.25
2023-02-08T21:59:48.469Z,99920.25
2023-02-08T22:02:23.756Z,99909.34
2023-02-08T22:04:52.171Z,99911.03
2023-02-08T22:07:20.111Z,99913.94
2023-02-08T22:09:48.151Z,99906.25
2023-02-08T22:12:22.944Z,99902.09
2023-02-08T22:14:51.200Z,99904.59
2023-02-08T22:17:20.828Z,99906.72
2023-02-08T22:19:49.583Z,99907.13
2023-02-08T22:22:19.000Z,99906.72
2023-02-08T22:24:48.605Z,99905.06
2023-02-08T22:27:18.043Z,99905.50
2023-02-08T22:29:47.379Z,99898.81
2023-02-08T22:32:17.117Z,99902.66
2023-02-08T22:34:45.062Z,99907.13
2023-02-08T22:37:13.042Z,99901.34
2023-02-08T22:39:43.417Z,99897.66
2023-02-08T22:42:15.843Z,99890.75
2023-02-08T22:44:45.674Z,99879.91
2023-02-08T22:47:14.427Z,99889.59
2023-02-08T22:49:42.294Z,99894.16
2023-02-08T22:52:12.236Z,99900.97
2023-02-08T22:54:40.035Z,99892.19
2023-02-08T22:57:09.662Z,99887.31
2023-02-08T22:59:38.625Z,99882.06
2023-02-08T23:02:10.440Z,99875.91
2023-02-08T23:04:39.015Z,99877.13
2023-02-08T23:07:07.512Z,99873.97
2023-02-08T23:09:35.284Z,99871.00
2023-02-08T23:12:03.138Z,99873.06
2023-02-08T23:14:30.924Z,99877.66
2023-02-08T23:16:58.741Z,99864.44
2023-02-08T23:19:28.072Z,99875.13
2023-02-08T23:21:59.366Z,99879.31
2023-02-08T23:24:27.445Z,99872.31
2023-02-08T23:26:55.241Z,99881.97
2023-02-08T23:29:22.949Z,99873.50
2023-02-08T23:31:50.910Z,99871.22
2023-02-08T23:34:19.162Z,99866.09
2023-02-08T23:36:48.542Z,99857.66
2023-02-08T23:39:16.250Z,99866.06
2023-02-08T23:41:43.981Z,99865.66
2023-02-08T23:44:12.202Z,99860.75
2023-02-08T23:46:40.057Z,99859.88
2023-02-08T23:49:07.851Z,99853.41
2023-02-08T23:51:35.567Z,99850.06
2023-02-08T23:54:04.760Z,99857.41
2023-02-08T23:56:32.920Z,99852.59
2023-02-08T23:59:00.855Z,99855.41
